sensor_id;sensor_type;location;lat;lon;timestamp;temperature;humidity
62991;DHT22;49084;48.204;16.202;2023-05-10T00:01:58;10.10;99.90
62991;DHT22;49084;48.204;16.202;2023-05-10T00:04:24;10.00;99.90
62991;DHT22;49084;48.204;16.202;2023-05-10T00:06:53;9.90;99.90
62991;DHT22;49084;48.204;16.202;2023-05-10T00:09:18;9.80;99.90
62991;DHT22;49084;48.204;16.202;2023-05-10T00:11:44;9.80;99.90
62991;DHT22;49084;48.204;16.202;2023-05-10T00:14:10;9.80;99.90
62991;DHT22;49084;48.204;16.202;2023-05-10T00:16:35;9.80;99.90
62991;DHT22;49084;48.204;16.202;2023-05-10T00:19:01;9.70;99.90
62991;DHT22;49084;48.204;16.202;2023-05-10T00:21:26;9.70;99.90
62991;DHT22;49084;48.204;16.202;2023-05-10T00:23:53;9.70;99.90
62991;DHT22;49084;48.204;16.202;2023-05-10T00:26:19;9.60;99.90
62991;DHT22;49084;48.204;16.202;2023-05-10T00:28:45;9.60;99.90
62991;DHT22;49084;48.204;16.202;2023-05-10T00:31:11;9.60;99.90
62991;DHT22;49084;48.204;16.202;2023-05-10T00:33:36;9.50;99.90
62991;DHT22;49084;48.204;16.202;2023-05-10T00:36:02;9.50;99.90
62991;DHT22;49084;48.204;16.202;2023-05-10T00:38:28;9.40;99.90
62991;DHT22;49084;48.204;16.202;2023-05-10T00:40:53;9.50;99.90
62991;DHT22;49084;48.204;16.202;2023-05-10T00:43:19;9.40;99.90
62991;DHT22;49084;48.204;16.202;2023-05-10T00:45:45;9.40;99.90
62991;DHT22;49084;48.204;16.202;2023-05-10T00:48:11;9.40;99.90
62991;DHT22;49084;48.204;16.202;2023-05-10T00:50:37;9.40;99.90
62991;DHT22;49084;48.204;16.202;2023-05-10T00:53:03;9.30;99.90
62991;DHT22;49084;48.204;16.202;2023-05-10T00:55:29;9.30;99.90
62991;DHT22;49084;48.204;16.202;2023-05-10T00:57:55;9.30;99.90
62991;DHT22;49084;48.204;16.202;2023-05-10T01:00:21;9.20;99.90
62991;DHT22;49084;48.204;16.202;2023-05-10T01:02:47;9.20;99.90
62991;DHT22;49084;48.204;16.202;2023-05-10T01:05:13;9.20;99.90
62991;DHT22;49084;48.204;16.202;2023-05-10T01:07:39;9.10;99.90
62991;DHT22;49084;48.204;16.202;2023-05-10T01:10:06;9.10;99.90
62991;DHT22;49084;48.204;16.202;2023-05-10T01:12:38;9.10;99.90
62991;DHT22;49084;48.204;16.202;2023-05-10T01:15:08;9.10;99.90
62991;DHT22;49084;48.204;16.202;2023-05-10T01:17:38;9.10;99.90
62991;DHT22;49084;48.204;16.202;2023-05-10T01:20:05;9.10;99.90
62991;DHT22;49084;48.204;16.202;2023-05-10T01:34:09;9.20;99.90
62991;DHT22;49084;48.204;16.202;2023-05-10T01:36:43;9.20;99.90
62991;DHT22;49084;48.204;16.202;2023-05-10T01:39:36;9.20;99.90
62991;DHT22;49084;48.204;16.202;2023-05-10T01:42:10;9.10;99.90
62991;DHT22;49084;48.204;16.202;2023-05-10T01:44:46;9.10;99.90
62991;DHT22;49084;48.204;16.202;2023-05-10T01:47:19;9.00;99.90
62991;DHT22;49084;48.204;16.202;2023-05-10T01:49:50;9.00;99.90
62991;DHT22;49084;48.204;16.202;2023-05-10T01:52:19;9.00;99.90
62991;DHT22;49084;48.204;16.202;2023-05-10T01:54:51;9.00;99.90
62991;DHT22;49084;48.204;16.202;2023-05-10T01:57:20;8.90;99.90
62991;DHT22;49084;48.204;16.202;2023-05-10T01:59:50;8.90;99.90
62991;DHT22;49084;48.204;16.202;2023-05-10T02:02:18;8.80;99.90
62991;DHT22;49084;48.204;16.202;2023-05-10T02:04:46;8.80;99.90
62991;DHT22;49084;48.204;16.202;2023-05-10T02:07:14;8.80;99.90
62991;DHT22;49084;48.204;16.202;2023-05-10T02:09:40;8.70;99.90
62991;DHT22;49084;48.204;16.202;2023-05-10T02:12:09;8.60;99.90
62991;DHT22;49084;48.204;16.202;2023-05-10T02:14:36;8.60;99.90
62991;DHT22;49084;48.204;16.202;2023-05-10T02:17:04;8.50;99.90
62991;DHT22;49084;48.204;16.202;2023-05-10T02:19:32;8.50;99.90
62991;DHT22;49084;48.204;16.202;2023-05-10T02:21:59;8.50;99.90
62991;DHT22;49084;48.204;16.202;2023-05-10T02:24:27;8.40;99.90
62991;DHT22;49084;48.204;16.202;2023-05-10T02:26:54;8.50;99.90
62991;DHT22;49084;48.204;16.202;2023-05-10T02:29:23;8.50;99.90
62991;DHT22;49084;48.204;16.202;2023-05-10T02:31:52;8.50;99.90
62991;DHT22;49084;48.204;16.202;2023-05-10T02:34:20;8.50;99.90
62991;DHT22;49084;48.204;16.202;2023-05-10T02:36:47;8.50;99.90
62991;DHT22;49084;48.204;16.202;2023-05-10T02:39:14;8.50;99.90
62991;DHT22;49084;48.204;16.202;2023-05-10T02:41:42;8.50;99.90
62991;DHT22;49084;48.204;16.202;2023-05-10T02:46:35;8.60;99.90
62991;DHT22;49084;48.204;16.202;2023-05-10T02:49:02;8.60;99.90
62991;DHT22;49084;48.204;16.202;2023-05-10T02:51:31;8.50;99.90
62991;DHT22;49084;48.204;16.202;2023-05-10T02:53:57;8.50;99.90
62991;DHT22;49084;48.204;16.202;2023-05-10T02:56:33;8.50;99.90
62991;DHT22;49084;48.204;16.202;2023-05-10T02:58:59;8.40;99.90
62991;DHT22;49084;48.204;16.202;2023-05-10T03:01:25;8.40;99.90
62991;DHT22;49084;48.204;16.202;2023-05-10T03:03:51;8.40;99.90
62991;DHT22;49084;48.204;16.202;2023-05-10T03:06:17;8.40;99.90
62991;DHT22;49084;48.204;16.202;2023-05-10T03:08:43;8.30;99.90
62991;DHT22;49084;48.204;16.202;2023-05-10T03:11:16;8.30;99.90
62991;DHT22;49084;48.204;16.202;2023-05-10T03:14:13;8.30;99.90
62991;DHT22;49084;48.204;16.202;2023-05-10T03:16:47;8.20;99.90
62991;DHT22;49084;48.204;16.202;2023-05-10T03:19:43;8.20;99.90
62991;DHT22;49084;48.204;16.202;2023-05-10T03:22:10;8.20;99.90
62991;DHT22;49084;48.204;16.202;2023-05-10T03:24:39;8.20;99.90
62991;DHT22;49084;48.204;16.202;2023-05-10T03:27:08;8.20;99.90
62991;DHT22;49084;48.204;16.202;2023-05-10T03:29:33;8.20;99.90
62991;DHT22;49084;48.204;16.202;2023-05-10T03:32:00;8.20;99.90
62991;DHT22;49084;48.204;16.202;2023-05-10T03:34:26;8.20;99.90
62991;DHT22;49084;48.204;16.202;2023-05-10T03:36:52;8.20;99.90
62991;DHT22;49084;48.204;16.202;2023-05-10T03:39:18;8.10;99.90
62991;DHT22;49084;48.204;16.202;2023-05-10T03:41:43;8.10;99.90
62991;DHT22;49084;48.204;16.202;2023-05-10T03:44:09;8.10;99.90
62991;DHT22;49084;48.204;16.202;2023-05-10T03:46:35;8.10;99.90
62991;DHT22;49084;48.204;16.202;2023-05-10T03:49:00;8.20;99.90
62991;DHT22;49084;48.204;16.202;2023-05-10T03:51:26;8.20;99.90
62991;DHT22;49084;48.204;16.202;2023-05-10T03:53:54;8.20;99.90
62991;DHT22;49084;48.204;16.202;2023-05-10T03:56:20;8.20;99.90
62991;DHT22;49084;48.204;16.202;2023-05-10T03:58:46;8.10;99.90
62991;DHT22;49084;48.204;16.202;2023-05-10T04:01:12;8.20;99.90
62991;DHT22;49084;48.204;16.202;2023-05-10T04:03:38;8.20;99.90
62991;DHT22;49084;48.204;16.202;2023-05-10T04:06:04;8.20;99.90
62991;DHT22;49084;48.204;16.202;2023-05-10T04:08:29;8.30;99.90
62991;DHT22;49084;48.204;16.202;2023-05-10T04:11:05;8.30;99.90
62991;DHT22;49084;48.204;16.202;2023-05-10T04:13:31;8.30;99.90
62991;DHT22;49084;48.204;16.202;2023-05-10T04:15:57;8.40;99.90
62991;DHT22;49084;48.204;16.202;2023-05-10T04:18:23;8.40;99.90
62991;DHT22;49084;48.204;16.202;2023-05-10T04:20:48;8.40;99.90
62991;DHT22;49084;48.204;16.202;2023-05-10T04:23:14;8.50;99.90
62991;DHT22;49084;48.204;16.202;2023-05-10T04:25:42;8.50;99.90
62991;DHT22;49084;48.204;16.202;2023-05-10T04:28:08;8.60;99.90
62991;DHT22;49084;48.204;16.202;2023-05-10T04:30:34;8.70;99.90
62991;DHT22;49084;48.204;16.202;2023-05-10T04:33:00;8.70;99.90
62991;DHT22;49084;48.204;16.202;2023-05-10T04:35:27;8.80;99.90
62991;DHT22;49084;48.204;16.202;2023-05-10T04:37:53;8.90;99.90
62991;DHT22;49084;48.204;16.202;2023-05-10T04:40:19;8.90;99.90
62991;DHT22;49084;48.204;16.202;2023-05-10T04:42:45;9.00;99.90
62991;DHT22;49084;48.204;16.202;2023-05-10T04:45:11;9.10;99.90
62991;DHT22;49084;48.204;16.202;2023-05-10T04:47:37;9.10;99.90
62991;DHT22;49084;48.204;16.202;2023-05-10T04:50:03;9.20;99.90
62991;DHT22;49084;48.204;16.202;2023-05-10T04:52:29;9.20;99.90
62991;DHT22;49084;48.204;16.202;2023-05-10T04:54:55;9.30;99.90
62991;DHT22;49084;48.204;16.202;2023-05-10T04:57:20;9.30;99.90
62991;DHT22;49084;48.204;16.202;2023-05-10T04:59:46;9.40;99.90
62991;DHT22;49084;48.204;16.202;2023-05-10T05:02:12;9.50;99.90
62991;DHT22;49084;48.204;16.202;2023-05-10T05:04:37;9.60;99.90
62991;DHT22;49084;48.204;16.202;2023-05-10T05:07:03;9.70;99.90
62991;DHT22;49084;48.204;16.202;2023-05-10T05:09:29;9.70;99.90
62991;DHT22;49084;48.204;16.202;2023-05-10T05:11:54;9.80;99.90
62991;DHT22;49084;48.204;16.202;2023-05-10T05:14:20;9.90;99.90
62991;DHT22;49084;48.204;16.202;2023-05-10T05:16:53;10.00;99.90
62991;DHT22;49084;48.204;16.202;2023-05-10T05:19:19;10.10;99.90
62991;DHT22;49084;48.204;16.202;2023-05-10T05:21:45;10.20;99.90
62991;DHT22;49084;48.204;16.202;2023-05-10T05:24:10;10.30;99.90
62991;DHT22;49084;48.204;16.202;2023-05-10T05:26:38;10.40;99.90
62991;DHT22;49084;48.204;16.202;2023-05-10T05:29:04;10.60;99.90
62991;DHT22;49084;48.204;16.202;2023-05-10T05:31:29;10.70;99.90
62991;DHT22;49084;48.204;16.202;2023-05-10T05:33:55;10.80;99.90
62991;DHT22;49084;48.204;16.202;2023-05-10T05:36:21;10.90;99.90
62991;DHT22;49084;48.204;16.202;2023-05-10T05:38:47;11.00;99.90
62991;DHT22;49084;48.204;16.202;2023-05-10T05:41:13;11.10;99.90
62991;DHT22;49084;48.204;16.202;2023-05-10T05:43:39;11.20;99.90
62991;DHT22;49084;48.204;16.202;2023-05-10T05:46:04;11.40;99.90
62991;DHT22;49084;48.204;16.202;2023-05-10T05:48:30;11.50;99.90
62991;DHT22;49084;48.204;16.202;2023-05-10T05:50:56;11.60;99.90
62991;DHT22;49084;48.204;16.202;2023-05-10T05:53:22;12.00;99.90
62991;DHT22;49084;48.204;16.202;2023-05-10T05:55:55;12.40;99.90
62991;DHT22;49084;48.204;16.202;2023-05-10T05:58:21;12.70;99.90
62991;DHT22;49084;48.204;16.202;2023-05-10T06:00:47;13.20;99.90
62991;DHT22;49084;48.204;16.202;2023-05-10T06:03:13;13.60;99.90
62991;DHT22;49084;48.204;16.202;2023-05-10T06:05:39;13.80;99.90
62991;DHT22;49084;48.204;16.202;2023-05-10T06:08:04;14.20;99.90
62991;DHT22;49084;48.204;16.202;2023-05-10T06:10:30;14.60;99.90
62991;DHT22;49084;48.204;16.202;2023-05-10T06:12:56;15.10;99.90
62991;DHT22;49084;48.204;16.202;2023-05-10T06:15:22;15.50;99.90
62991;DHT22;49084;48.204;16.202;2023-05-10T06:17:47;15.50;99.90
62991;DHT22;49084;48.204;16.202;2023-05-10T06:20:15;15.60;98.90
62991;DHT22;49084;48.204;16.202;2023-05-10T06:22:41;15.80;98.60
62991;DHT22;49084;48.204;16.202;2023-05-10T06:25:07;16.00;98.00
62991;DHT22;49084;48.204;16.202;2023-05-10T06:27:33;15.80;96.90
62991;DHT22;49084;48.204;16.202;2023-05-10T06:29:58;15.90;97.10
62991;DHT22;49084;48.204;16.202;2023-05-10T06:32:24;16.20;95.70
62991;DHT22;49084;48.204;16.202;2023-05-10T06:34:50;16.40;94.10
62991;DHT22;49084;48.204;16.202;2023-05-10T06:37:16;16.50;92.80
62991;DHT22;49084;48.204;16.202;2023-05-10T06:39:42;16.40;91.10
62991;DHT22;49084;48.204;16.202;2023-05-10T06:42:07;16.50;90.70
62991;DHT22;49084;48.204;16.202;2023-05-10T06:44:33;16.80;88.80
62991;DHT22;49084;48.204;16.202;2023-05-10T06:46:59;16.90;86.60
62991;DHT22;49084;48.204;16.202;2023-05-10T06:49:24;17.10;85.70
62991;DHT22;49084;48.204;16.202;2023-05-10T06:51:50;17.30;84.80
62991;DHT22;49084;48.204;16.202;2023-05-10T06:54:15;17.30;84.00
62991;DHT22;49084;48.204;16.202;2023-05-10T06:56:41;17.00;85.30
62991;DHT22;49084;48.204;16.202;2023-05-10T06:59:07;16.90;86.60
62991;DHT22;49084;48.204;16.202;2023-05-10T07:01:33;17.10;85.60
62991;DHT22;49084;48.204;16.202;2023-05-10T07:03:58;17.30;85.40
62991;DHT22;49084;48.204;16.202;2023-05-10T07:06:24;17.50;84.50
62991;DHT22;49084;48.204;16.202;2023-05-10T07:08:49;17.60;83.50
62991;DHT22;49084;48.204;16.202;2023-05-10T07:11:15;17.80;82.90
62991;DHT22;49084;48.204;16.202;2023-05-10T07:13:41;18.10;80.30
62991;DHT22;49084;48.204;16.202;2023-05-10T07:16:09;18.00;78.40
62991;DHT22;49084;48.204;16.202;2023-05-10T07:18:35;17.60;78.10
62991;DHT22;49084;48.204;16.202;2023-05-10T07:21:01;18.00;77.90
62991;DHT22;49084;48.204;16.202;2023-05-10T07:23:27;18.20;76.40
62991;DHT22;49084;48.204;16.202;2023-05-10T07:25:52;18.40;74.60
62991;DHT22;49084;48.204;16.202;2023-05-10T07:28:19;18.50;72.00
62991;DHT22;49084;48.204;16.202;2023-05-10T07:30:45;18.60;72.10
62991;DHT22;49084;48.204;16.202;2023-05-10T07:33:12;18.00;70.40
62991;DHT22;49084;48.204;16.202;2023-05-10T07:35:38;18.40;72.30
62991;DHT22;49084;48.204;16.202;2023-05-10T07:38:04;18.80;71.90
62991;DHT22;49084;48.204;16.202;2023-05-10T07:40:30;19.30;70.30
62991;DHT22;49084;48.204;16.202;2023-05-10T07:42:55;19.70;67.50
62991;DHT22;49084;48.204;16.202;2023-05-10T07:45:22;19.60;66.20
62991;DHT22;49084;48.204;16.202;2023-05-10T07:47:47;19.20;66.90
62991;DHT22;49084;48.204;16.202;2023-05-10T07:50:13;19.30;65.80
62991;DHT22;49084;48.204;16.202;2023-05-10T07:52:39;19.00;66.70
62991;DHT22;49084;48.204;16.202;2023-05-10T07:55:05;19.00;67.20
62991;DHT22;49084;48.204;16.202;2023-05-10T07:57:35;18.70;66.90
62991;DHT22;49084;48.204;16.202;2023-05-10T08:00:02;18.70;67.80
62991;DHT22;49084;48.204;16.202;2023-05-10T08:02:28;19.20;67.10
62991;DHT22;49084;48.204;16.202;2023-05-10T08:04:53;18.90;66.20
62991;DHT22;49084;48.204;16.202;2023-05-10T08:07:19;18.60;67.70
62991;DHT22;49084;48.204;16.202;2023-05-10T08:09:44;18.10;67.00
62991;DHT22;49084;48.204;16.202;2023-05-10T08:12:10;18.20;69.40
62991;DHT22;49084;48.204;16.202;2023-05-10T08:14:36;18.00;72.60
62991;DHT22;49084;48.204;16.202;2023-05-10T08:17:04;17.80;74.50
62991;DHT22;49084;48.204;16.202;2023-05-10T08:19:30;17.80;74.30
62991;DHT22;49084;48.204;16.202;2023-05-10T08:21:55;17.70;74.80
62991;DHT22;49084;48.204;16.202;2023-05-10T08:24:22;17.90;75.60
62991;DHT22;49084;48.204;16.202;2023-05-10T08:26:47;18.50;76.00
62991;DHT22;49084;48.204;16.202;2023-05-10T08:29:14;18.70;74.50
62991;DHT22;49084;48.204;16.202;2023-05-10T08:31:39;19.00;73.50
62991;DHT22;49084;48.204;16.202;2023-05-10T08:34:05;19.00;73.40
62991;DHT22;49084;48.204;16.202;2023-05-10T08:36:31;18.70;73.20
62991;DHT22;49084;48.204;16.202;2023-05-10T08:38:57;18.80;74.20
62991;DHT22;49084;48.204;16.202;2023-05-10T08:41:24;18.30;75.30
62991;DHT22;49084;48.204;16.202;2023-05-10T08:43:53;18.40;76.10
62991;DHT22;49084;48.204;16.202;2023-05-10T08:46:20;18.40;74.40
62991;DHT22;49084;48.204;16.202;2023-05-10T08:48:48;18.30;73.60
62991;DHT22;49084;48.204;16.202;2023-05-10T08:51:19;17.90;73.30
62991;DHT22;49084;48.204;16.202;2023-05-10T08:53:46;17.80;72.60
62991;DHT22;49084;48.204;16.202;2023-05-10T08:56:12;18.10;72.00
62991;DHT22;49084;48.204;16.202;2023-05-10T08:58:38;18.50;70.70
62991;DHT22;49084;48.204;16.202;2023-05-10T09:01:05;18.40;70.20
62991;DHT22;49084;48.204;16.202;2023-05-10T09:03:31;18.30;69.20
62991;DHT22;49084;48.204;16.202;2023-05-10T09:05:58;18.70;69.60
62991;DHT22;49084;48.204;16.202;2023-05-10T09:08:25;19.10;69.40
62991;DHT22;49084;48.204;16.202;2023-05-10T09:10:51;19.30;69.50
62991;DHT22;49084;48.204;16.202;2023-05-10T09:13:18;19.50;69.50
62991;DHT22;49084;48.204;16.202;2023-05-10T09:15:45;19.70;67.20
62991;DHT22;49084;48.204;16.202;2023-05-10T09:18:11;20.40;66.40
62991;DHT22;49084;48.204;16.202;2023-05-10T09:20:37;20.80;63.20
62991;DHT22;49084;48.204;16.202;2023-05-10T09:23:02;21.30;62.70
62991;DHT22;49084;48.204;16.202;2023-05-10T09:25:28;20.70;60.30
62991;DHT22;49084;48.204;16.202;2023-05-10T09:27:55;20.30;62.20
62991;DHT22;49084;48.204;16.202;2023-05-10T09:30:25;20.50;63.20
62991;DHT22;49084;48.204;16.202;2023-05-10T09:32:51;20.50;60.70
62991;DHT22;49084;48.204;16.202;2023-05-10T09:35:22;20.60;61.80
62991;DHT22;49084;48.204;16.202;2023-05-10T09:37:53;19.70;63.10
62991;DHT22;49084;48.204;16.202;2023-05-10T09:40:23;20.70;62.40
62991;DHT22;49084;48.204;16.202;2023-05-10T09:42:59;21.20;60.80
62991;DHT22;49084;48.204;16.202;2023-05-10T09:45:27;21.80;60.80
62991;DHT22;49084;48.204;16.202;2023-05-10T09:47:53;21.60;60.10
62991;DHT22;49084;48.204;16.202;2023-05-10T09:50:20;22.10;59.40
62991;DHT22;49084;48.204;16.202;2023-05-10T09:52:53;21.30;60.60
62991;DHT22;49084;48.204;16.202;2023-05-10T09:55:25;21.10;62.10
62991;DHT22;49084;48.204;16.202;2023-05-10T09:57:59;21.10;61.70
62991;DHT22;49084;48.204;16.202;2023-05-10T10:00:26;21.10;60.90
62991;DHT22;49084;48.204;16.202;2023-05-10T10:02:57;21.10;59.80
62991;DHT22;49084;48.204;16.202;2023-05-10T10:05:34;21.60;59.00
62991;DHT22;49084;48.204;16.202;2023-05-10T10:08:02;22.20;58.50
62991;DHT22;49084;48.204;16.202;2023-05-10T10:10:29;22.40;55.50
62991;DHT22;49084;48.204;16.202;2023-05-10T10:12:56;22.10;54.40
62991;DHT22;49084;48.204;16.202;2023-05-10T10:15:22;21.60;54.70
62991;DHT22;49084;48.204;16.202;2023-05-10T10:17:48;21.90;53.10
62991;DHT22;49084;48.204;16.202;2023-05-10T10:20:15;22.40;53.20
62991;DHT22;49084;48.204;16.202;2023-05-10T10:22:41;22.80;52.00
62991;DHT22;49084;48.204;16.202;2023-05-10T10:25:08;22.80;52.20
62991;DHT22;49084;48.204;16.202;2023-05-10T10:35:29;21.70;51.60
62991;DHT22;49084;48.204;16.202;2023-05-10T10:37:55;21.70;52.10
62991;DHT22;49084;48.204;16.202;2023-05-10T10:40:29;22.40;52.90
62991;DHT22;49084;48.204;16.202;2023-05-10T10:42:56;22.80;50.60
62991;DHT22;49084;48.204;16.202;2023-05-10T10:45:23;22.60;50.60
62991;DHT22;49084;48.204;16.202;2023-05-10T10:47:53;22.20;50.70
62991;DHT22;49084;48.204;16.202;2023-05-10T10:50:19;22.00;51.10
62991;DHT22;49084;48.204;16.202;2023-05-10T10:52:45;22.10;50.20
62991;DHT22;49084;48.204;16.202;2023-05-10T10:55:12;22.10;49.10
62991;DHT22;49084;48.204;16.202;2023-05-10T11:07:58;23.90;48.20
62991;DHT22;49084;48.204;16.202;2023-05-10T11:10:25;23.70;47.40
62991;DHT22;49084;48.204;16.202;2023-05-10T11:13:00;23.90;46.80
62991;DHT22;49084;48.204;16.202;2023-05-10T11:17:56;22.30;49.50
62991;DHT22;49084;48.204;16.202;2023-05-10T11:20:22;22.40;49.60
62991;DHT22;49084;48.204;16.202;2023-05-10T11:22:53;22.50;49.20
62991;DHT22;49084;48.204;16.202;2023-05-10T11:25:19;23.50;49.40
62991;DHT22;49084;48.204;16.202;2023-05-10T11:27:47;24.00;47.80
62991;DHT22;49084;48.204;16.202;2023-05-10T11:30:14;23.90;47.90
62991;DHT22;49084;48.204;16.202;2023-05-10T11:32:40;24.00;48.80
62991;DHT22;49084;48.204;16.202;2023-05-10T11:35:11;23.30;49.50
62991;DHT22;49084;48.204;16.202;2023-05-10T11:37:38;22.50;49.80
62991;DHT22;49084;48.204;16.202;2023-05-10T11:40:08;22.60;50.50
62991;DHT22;49084;48.204;16.202;2023-05-10T11:42:39;23.00;50.40
62991;DHT22;49084;48.204;16.202;2023-05-10T11:45:05;23.40;50.40
62991;DHT22;49084;48.204;16.202;2023-05-10T11:47:31;24.00;49.40
62991;DHT22;49084;48.204;16.202;2023-05-10T11:49:57;23.40;49.40
62991;DHT22;49084;48.204;16.202;2023-05-10T11:52:23;23.40;48.00
62991;DHT22;49084;48.204;16.202;2023-05-10T11:54:53;23.50;48.30
62991;DHT22;49084;48.204;16.202;2023-05-10T11:57:20;23.00;47.40
62991;DHT22;49084;48.204;16.202;2023-05-10T11:59:46;23.50;48.50
62991;DHT22;49084;48.204;16.202;2023-05-10T12:02:13;23.00;47.40
62991;DHT22;49084;48.204;16.202;2023-05-10T12:04:39;23.50;47.60
62991;DHT22;49084;48.204;16.202;2023-05-10T12:07:05;23.30;48.00
62991;DHT22;49084;48.204;16.202;2023-05-10T12:09:31;23.30;48.00
62991;DHT22;49084;48.204;16.202;2023-05-10T12:11:56;23.00;49.00
62991;DHT22;49084;48.204;16.202;2023-05-10T12:14:22;23.20;48.60
62991;DHT22;49084;48.204;16.202;2023-05-10T12:16:49;23.00;49.40
62991;DHT22;49084;48.204;16.202;2023-05-10T12:19:18;23.60;54.60
62991;DHT22;49084;48.204;16.202;2023-05-10T12:21:45;23.00;50.10
62991;DHT22;49084;48.204;16.202;2023-05-10T12:24:11;22.20;49.70
62991;DHT22;49084;48.204;16.202;2023-05-10T12:26:37;23.40;49.10
62991;DHT22;49084;48.204;16.202;2023-05-10T12:31:56;23.20;48.10
62991;DHT22;49084;48.204;16.202;2023-05-10T12:34:35;23.60;46.90
62991;DHT22;49084;48.204;16.202;2023-05-10T12:37:04;23.40;47.40
62991;DHT22;49084;48.204;16.202;2023-05-10T12:39:44;23.00;48.30
62991;DHT22;49084;48.204;16.202;2023-05-10T12:42:10;22.20;48.40
62991;DHT22;49084;48.204;16.202;2023-05-10T12:44:36;21.60;50.10
62991;DHT22;49084;48.204;16.202;2023-05-10T12:47:02;21.00;49.90
62991;DHT22;49084;48.204;16.202;2023-05-10T12:49:27;21.00;50.70
62991;DHT22;49084;48.204;16.202;2023-05-10T12:51:53;21.00;50.50
62991;DHT22;49084;48.204;16.202;2023-05-10T12:54:19;21.20;49.50
62991;DHT22;49084;48.204;16.202;2023-05-10T12:56:44;21.50;50.00
62991;DHT22;49084;48.204;16.202;2023-05-10T12:59:10;22.30;48.80
62991;DHT22;49084;48.204;16.202;2023-05-10T13:01:35;22.50;48.50
62991;DHT22;49084;48.204;16.202;2023-05-10T13:04:01;21.50;50.60
62991;DHT22;49084;48.204;16.202;2023-05-10T13:06:27;21.10;51.80
62991;DHT22;49084;48.204;16.202;2023-05-10T13:08:52;21.50;50.40
62991;DHT22;49084;48.204;16.202;2023-05-10T13:11:18;21.50;50.60
62991;DHT22;49084;48.204;16.202;2023-05-10T13:13:45;21.40;48.50
62991;DHT22;49084;48.204;16.202;2023-05-10T13:16:10;22.00;48.50
62991;DHT22;49084;48.204;16.202;2023-05-10T13:18:36;22.20;46.90
62991;DHT22;49084;48.204;16.202;2023-05-10T13:21:02;23.40;46.60
62991;DHT22;49084;48.204;16.202;2023-05-10T13:23:30;23.80;46.90
62991;DHT22;49084;48.204;16.202;2023-05-10T13:25:56;23.70;46.90
62991;DHT22;49084;48.204;16.202;2023-05-10T13:28:21;23.00;46.10
62991;DHT22;49084;48.204;16.202;2023-05-10T13:30:47;23.70;45.60
62991;DHT22;49084;48.204;16.202;2023-05-10T13:33:13;24.00;45.20
62991;DHT22;49084;48.204;16.202;2023-05-10T13:35:38;24.10;45.90
62991;DHT22;49084;48.204;16.202;2023-05-10T13:38:04;23.90;46.60
62991;DHT22;49084;48.204;16.202;2023-05-10T13:40:29;24.30;46.10
62991;DHT22;49084;48.204;16.202;2023-05-10T13:42:55;24.50;47.40
62991;DHT22;49084;48.204;16.202;2023-05-10T13:45:21;24.40;46.50
62991;DHT22;49084;48.204;16.202;2023-05-10T13:47:46;24.10;47.10
62991;DHT22;49084;48.204;16.202;2023-05-10T13:50:12;24.20;45.50
62991;DHT22;49084;48.204;16.202;2023-05-10T13:52:38;24.00;46.30
62991;DHT22;49084;48.204;16.202;2023-05-10T13:55:03;23.10;47.90
62991;DHT22;49084;48.204;16.202;2023-05-10T13:57:29;22.60;49.20
62991;DHT22;49084;48.204;16.202;2023-05-10T13:59:55;23.10;47.50
62991;DHT22;49084;48.204;16.202;2023-05-10T14:02:22;23.10;48.60
62991;DHT22;49084;48.204;16.202;2023-05-10T14:04:48;22.30;50.10
62991;DHT22;49084;48.204;16.202;2023-05-10T14:07:14;22.60;50.50
62991;DHT22;49084;48.204;16.202;2023-05-10T14:09:39;23.40;49.00
62991;DHT22;49084;48.204;16.202;2023-05-10T14:12:05;22.70;49.70
62991;DHT22;49084;48.204;16.202;2023-05-10T14:14:30;21.70;51.20
62991;DHT22;49084;48.204;16.202;2023-05-10T14:16:56;22.40;49.90
62991;DHT22;49084;48.204;16.202;2023-05-10T14:19:22;22.70;49.70
62991;DHT22;49084;48.204;16.202;2023-05-10T14:21:47;23.50;48.80
62991;DHT22;49084;48.204;16.202;2023-05-10T14:24:13;24.40;46.70
62991;DHT22;49084;48.204;16.202;2023-05-10T14:26:39;24.40;46.30
62991;DHT22;49084;48.204;16.202;2023-05-10T14:29:04;23.80;47.30
62991;DHT22;49084;48.204;16.202;2023-05-10T14:31:30;23.90;47.00
62991;DHT22;49084;48.204;16.202;2023-05-10T14:33:56;24.00;46.50
62991;DHT22;49084;48.204;16.202;2023-05-10T14:36:23;24.60;43.50
62991;DHT22;49084;48.204;16.202;2023-05-10T14:38:48;23.90;44.70
62991;DHT22;49084;48.204;16.202;2023-05-10T14:41:15;23.90;43.80
62991;DHT22;49084;48.204;16.202;2023-05-10T14:43:42;22.80;44.30
62991;DHT22;49084;48.204;16.202;2023-05-10T14:46:08;22.50;44.90
62991;DHT22;49084;48.204;16.202;2023-05-10T14:48:34;22.40;45.30
62991;DHT22;49084;48.204;16.202;2023-05-10T14:51:00;22.90;44.60
62991;DHT22;49084;48.204;16.202;2023-05-10T14:53:26;22.90;44.70
62991;DHT22;49084;48.204;16.202;2023-05-10T14:55:51;22.60;45.40
62991;DHT22;49084;48.204;16.202;2023-05-10T14:58:17;23.20;45.90
62991;DHT22;49084;48.204;16.202;2023-05-10T15:00:43;22.80;44.60
62991;DHT22;49084;48.204;16.202;2023-05-10T15:03:09;22.70;45.20
62991;DHT22;49084;48.204;16.202;2023-05-10T15:05:34;22.70;45.20
62991;DHT22;49084;48.204;16.202;2023-05-10T15:08:02;23.60;44.20
62991;DHT22;49084;48.204;16.202;2023-05-10T15:10:28;22.70;44.10
62991;DHT22;49084;48.204;16.202;2023-05-10T15:12:53;22.50;44.80
62991;DHT22;49084;48.204;16.202;2023-05-10T15:15:19;21.70;46.00
62991;DHT22;49084;48.204;16.202;2023-05-10T15:17:45;21.60;46.80
62991;DHT22;49084;48.204;16.202;2023-05-10T15:20:11;21.70;48.20
62991;DHT22;49084;48.204;16.202;2023-05-10T15:22:37;21.70;47.30
62991;DHT22;49084;48.204;16.202;2023-05-10T15:25:03;21.40;47.50
62991;DHT22;49084;48.204;16.202;2023-05-10T15:27:29;21.50;47.10
62991;DHT22;49084;48.204;16.202;2023-05-10T15:29:55;21.50;45.80
62991;DHT22;49084;48.204;16.202;2023-05-10T15:32:21;21.40;46.80
62991;DHT22;49084;48.204;16.202;2023-05-10T15:34:47;22.00;46.80
62991;DHT22;49084;48.204;16.202;2023-05-10T15:37:12;21.70;47.80
62991;DHT22;49084;48.204;16.202;2023-05-10T15:39:38;21.70;49.60
62991;DHT22;49084;48.204;16.202;2023-05-10T15:42:03;21.90;48.20
62991;DHT22;49084;48.204;16.202;2023-05-10T15:44:29;21.40;48.90
62991;DHT22;49084;48.204;16.202;2023-05-10T15:46:55;21.00;49.80
62991;DHT22;49084;48.204;16.202;2023-05-10T15:49:21;20.80;50.90
62991;DHT22;49084;48.204;16.202;2023-05-10T15:51:46;20.40;51.60
62991;DHT22;49084;48.204;16.202;2023-05-10T15:54:12;20.30;52.10
62991;DHT22;49084;48.204;16.202;2023-05-10T15:56:38;20.00;52.80